Time;durP1;ratioP1;P1;durP2;ratioP2;P2;SDS_P1;SDS_P2;PMS_P1;PMS_P2;Temp;Humidity;BMP_temperature;BMP_pressure;BME280_temperature;BME280_humidity;BME280_pressure;Samples;Min_cycle;Max_cycle;Signal;HPM_P1;HPM_P2
2022/08/09 00:02:11;;;;;;;4.15;2.50;;;;;;;18.62;54.05;99761.13;5145862;28;20112;-70
2022/08/09 00:04:38;;;;;;;3.33;2.55;;;;;;;18.58;54.12;99763.22;5145902;28;20054;-70
2022/08/09 00:07:06;;;;;;;3.40;2.30;;;;;;;18.61;54.33;99764.78;5146100;27;20059;-70
2022/08/09 00:09:33;;;;;;;4.65;2.95;;;;;;;18.59;54.42;99759.56;5150027;27;20043;-70
2022/08/09 00:12:02;;;;;;;4.68;3.80;;;;;;;18.56;54.17;99755.28;5149194;27;20055;-70
2022/08/09 00:14:29;;;;;;;4.20;3.15;;;;;;;18.53;54.18;99754.69;5149989;27;20307;-70
2022/08/09 00:16:56;;;;;;;3.35;2.55;;;;;;;18.50;54.62;99755.75;5149108;27;20108;-70
2022/08/09 00:19:23;;;;;;;3.22;2.35;;;;;;;18.40;54.60;99757.47;5148886;27;20112;-70
2022/08/09 00:21:50;;;;;;;2.95;2.22;;;;;;;18.37;54.65;99755.06;5149128;27;20063;-69
2022/08/09 00:24:18;;;;;;;3.38;2.25;;;;;;;18.35;54.73;99753.47;5149331;27;20115;-69
2022/08/09 00:26:45;;;;;;;3.33;2.53;;;;;;;18.31;54.75;99749.31;5149121;27;20055;-69
2022/08/09 00:29:14;;;;;;;3.60;2.55;;;;;;;18.32;54.92;99751.03;5149030;27;20051;-69
2022/08/09 00:31:41;;;;;;;3.92;2.65;;;;;;;18.26;55.00;99760.44;5148984;27;20054;-69
2022/08/09 00:34:08;;;;;;;5.03;2.50;;;;;;;18.23;54.99;99756.16;5148654;27;20063;-70
2022/08/09 00:36:35;;;;;;;5.03;2.50;;;;;;;18.23;55.30;99753.47;5148854;27;20365;-69
2022/08/09 00:39:03;;;;;;;3.83;2.15;;;;;;;18.25;54.74;99748.84;5148649;27;20051;-69
2022/08/09 00:41:30;;;;;;;3.22;2.17;;;;;;;18.20;55.28;99751.03;5149860;27;20051;-69
2022/08/09 00:43:57;;;;;;;3.20;2.30;;;;;;;18.18;55.15;99754.81;5150939;27;20062;-70
2022/08/09 00:46:26;;;;;;;4.93;2.20;;;;;;;18.15;55.34;99752.41;5149692;27;20059;-70
2022/08/09 00:48:53;;;;;;;3.47;2.30;;;;;;;18.13;55.28;99757.88;5131121;27;20051;-69
2022/08/09 00:51:21;;;;;;;5.82;3.05;;;;;;;18.18;55.03;99755.69;5148750;27;20108;-69
2022/08/09 00:53:48;;;;;;;3.65;2.50;;;;;;;17.72;55.13;99694.16;5148613;27;20116;-69
2022/08/09 00:56:16;;;;;;;4.05;2.70;;;;;;;17.97;55.38;99732.41;5148518;27;20051;-70
2022/08/09 00:58:43;;;;;;;3.15;2.50;;;;;;;17.60;55.56;99695.94;5148509;27;20244;-70
2022/08/09 01:01:15;;;;;;;3.70;2.30;;;;;;;18.08;55.02;99754.72;5148159;27;20104;-70
2022/08/09 01:03:53;;;;;;;4.10;2.65;;;;;;;18.08;54.84;99754.72;5148678;27;20046;-71
2022/08/09 01:06:30;;;;;;;4.88;2.50;;;;;;;18.07;55.15;99744.97;5147995;27;20054;-70
2022/08/09 01:09:08;;;;;;;4.72;3.20;;;;;;;18.03;54.82;99754.22;5148296;27;20051;-70
2022/08/09 01:11:46;;;;;;;4.72;2.70;;;;;;;18.01;54.85;99744.59;5148433;27;20112;-72
2022/08/09 01:14:21;;;;;;;3.53;2.63;;;;;;;18.04;54.92;99742.53;5147868;27;20051;-70
2022/08/09 01:16:53;;;;;;;5.30;3.90;;;;;;;17.85;54.69;99728.88;5148239;27;20101;-70
2022/08/09 01:19:33;;;;;;;4.72;3.15;;;;;;;17.63;54.60;99700.22;5147885;27;20299;-69
2022/08/09 01:22:13;;;;;;;7.35;4.20;;;;;;;18.00;54.12;99746.44;5147964;27;20055;-69
2022/08/09 01:24:54;;;;;;;7.65;4.32;;;;;;;17.98;54.26;99747.53;5148018;27;20055;-70
2022/08/09 01:27:24;;;;;;;5.93;3.78;;;;;;;17.98;54.67;99745.69;5147888;27;20257;-70
2022/08/09 01:29:56;;;;;;;5.82;3.17;;;;;;;17.84;54.28;99721.81;5147929;27;20043;-69
2022/08/09 01:32:29;;;;;;;4.72;2.75;;;;;;;17.84;54.45;99727.16;5148032;27;20352;-70
2022/08/09 01:35:00;;;;;;;4.15;2.75;;;;;;;17.95;54.26;99748.63;5147834;27;20051;-70
2022/08/09 01:37:28;;;;;;;3.28;2.10;;;;;;;17.97;53.90;99741.31;5147761;27;20100;-69
2022/08/09 01:39:58;;;;;;;4.28;2.35;;;;;;;18.01;54.04;99731.19;5147337;27;20111;-69
2022/08/09 01:42:29;;;;;;;3.08;2.10;;;;;;;18.02;53.71;99736.44;5147309;27;20225;-70
2022/08/09 01:44:58;;;;;;;3.00;2.25;;;;;;;17.85;54.19;99710.97;5147507;27;20241;-69
2022/08/09 01:47:27;;;;;;;3.92;2.55;;;;;;;17.82;54.55;99713.88;5147698;27;20055;-69
2022/08/09 01:49:57;;;;;;;4.53;2.75;;;;;;;17.97;54.27;99735.09;5147349;27;20053;-70
2022/08/09 01:52:25;;;;;;;4.45;2.45;;;;;;;17.95;54.41;99735.22;5147296;27;20058;-69
2022/08/09 01:54:58;;;;;;;6.68;2.30;;;;;;;17.97;53.96;99738.63;5147537;27;20055;-69
2022/08/09 01:57:36;;;;;;;4.47;2.58;;;;;;;17.95;53.93;99737.91;5147348;27;20054;-68
2022/08/09 02:00:05;;;;;;;7.60;6.35;;;;;;;17.90;54.14;99740.94;5147307;27;20051;-68
2022/08/09 02:02:38;;;;;;;7.72;6.07;;;;;;;17.91;53.86;99739.97;5147265;27;20323;-68
2022/08/09 02:05:09;;;;;;;6.70;5.25;;;;;;;17.93;53.80;99734.47;5129182;27;20055;-68
2022/08/09 02:07:41;;;;;;;8.50;5.55;;;;;;;17.91;54.38;99745.31;5147109;27;20196;-68
2022/08/09 02:10:15;;;;;;;6.88;4.28;;;;;;;17.88;53.72;99737.53;5146986;27;20048;-67
2022/08/09 02:12:44;;;;;;;6.05;3.85;;;;;;;17.86;54.09;99752.88;5147035;27;20055;-68
2022/08/09 02:15:13;;;;;;;6.18;4.25;;;;;;;17.86;54.00;99742.16;5146781;27;20054;-68
2022/08/09 02:17:44;;;;;;;5.25;3.97;;;;;;;17.87;53.90;99740.34;5147088;27;20097;-68
2022/08/09 02:20:12;;;;;;;4.38;3.05;;;;;;;17.84;53.59;99740.56;5146793;27;20058;-68
2022/08/09 02:22:43;;;;;;;4.57;3.45;;;;;;;17.84;53.66;99735.22;5146908;27;20135;-68
2022/08/09 02:25:15;;;;;;;6.25;4.20;;;;;;;17.83;53.58;99742.41;5146447;27;20058;-67
2022/08/09 02:27:50;;;;;;;6.28;4.45;;;;;;;17.86;53.76;99741.31;5147242;27;20035;-68
2022/08/09 02:30:17;;;;;;;5.53;4.38;;;;;;;17.76;53.77;99741.19;5146288;27;20051;-68
2022/08/09 02:32:47;;;;;;;7.88;5.32;;;;;;;17.78;53.62;99733.00;5146572;27;20104;-68
2022/08/09 02:35:21;;;;;;;6.38;4.90;;;;;;;17.75;53.69;99746.66;5146693;27;20050;-67
2022/08/09 02:37:51;;;;;;;7.28;5.45;;;;;;;17.69;53.75;99745.31;5146819;27;20315;-68
2022/08/09 02:40:22;;;;;;;9.68;6.47;;;;;;;17.74;53.71;99750.31;5146450;27;20253;-68
2022/08/09 02:42:55;;;;;;;13.80;11.57;;;;;;;17.77;53.34;99740.22;5146242;27;20107;-69
2022/08/09 02:45:27;;;;;;;15.68;11.85;;;;;;;17.76;53.48;99743.00;5146544;27;20055;-68
2022/08/09 02:47:56;;;;;;;16.23;13.30;;;;;;;17.70;53.66;99740.81;5146458;27;20051;-69
2022/08/09 02:50:27;;;;;;;10.93;8.88;;;;;;;17.69;53.66;99741.78;5146436;27;20233;-68
2022/08/09 02:52:59;;;;;;;15.27;12.77;;;;;;;17.71;53.40;99740.69;5146664;27;20051;-68
2022/08/09 02:55:28;;;;;;;11.07;9.00;;;;;;;17.70;53.57;99746.16;5146444;28;20104;-68
2022/08/09 02:57:59;;;;;;;9.93;8.10;;;;;;;17.57;53.50;99709.56;5146351;28;20116;-68
2022/08/09 03:00:27;;;;;;;10.63;8.77;;;;;;;17.72;53.39;99730.81;5145862;28;20062;-68
2022/08/09 03:02:57;;;;;;;9.25;7.68;;;;;;;17.71;53.24;99731.78;5146380;28;20042;-68
2022/08/09 03:05:26;;;;;;;8.20;6.43;;;;;;;17.66;53.67;99729.47;5146370;28;20062;-68
2022/08/09 03:07:55;;;;;;;7.18;5.20;;;;;;;17.65;53.37;99732.28;5146232;28;20322;-68
2022/08/09 03:10:23;;;;;;;8.25;4.93;;;;;;;17.65;53.30;99727.75;5146869;28;20302;-70
2022/08/09 03:12:51;;;;;;;5.18;3.58;;;;;;;17.50;53.63;99707.50;5146114;28;20055;-68
2022/08/09 03:15:21;;;;;;;6.10;4.15;;;;;;;17.61;53.38;99728.97;5146278;28;20104;-68
2022/08/09 03:17:50;;;;;;;8.18;6.45;;;;;;;17.65;53.39;99729.59;5128114;28;20108;-69
2022/08/09 03:20:18;;;;;;;9.02;6.22;;;;;;;17.58;53.44;99730.03;5145977;28;20233;-69
2022/08/09 03:22:48;;;;;;;6.45;4.95;;;;;;;17.58;53.41;99730.03;5146230;28;20360;-68
2022/08/09 03:25:15;;;;;;;8.23;5.88;;;;;;;17.20;53.49;99663.38;5146243;28;20055;-68
2022/08/09 03:27:44;;;;;;;8.07;6.03;;;;;;;17.55;53.81;99729.44;5146195;28;20100;-68
2022/08/09 03:30:13;;;;;;;8.60;4.38;;;;;;;17.57;53.36;99727.47;5145959;28;20051;-69
2022/08/09 03:32:43;;;;;;;5.93;3.50;;;;;;;17.53;52.70;99724.19;5146513;28;20333;-68
2022/08/09 03:35:11;;;;;;;5.10;4.00;;;;;;;17.57;53.26;99728.34;5146152;28;20055;-68
2022/08/09 03:37:39;;;;;;;5.30;3.15;;;;;;;17.59;53.10;99731.75;5146012;28;20110;-68
2022/08/09 03:40:08;;;;;;;5.63;3.88;;;;;;;17.32;53.52;99696.38;5145966;28;20257;-68
2022/08/09 03:42:35;;;;;;;5.25;3.30;;;;;;;17.56;53.31;99731.13;5146168;27;20047;-68
2022/08/09 03:45:03;;;;;;;6.00;3.75;;;;;;;17.53;52.88;99726.00;5149498;27;20257;-68
2022/08/09 03:47:30;;;;;;;7.35;4.88;;;;;;;17.54;53.12;99730.41;5149957;27;20314;-68
2022/08/09 03:50:00;;;;;;;6.80;5.18;;;;;;;17.56;53.02;99734.66;5149728;27;20109;-68
2022/08/09 03:52:28;;;;;;;8.65;4.55;;;;;;;17.49;53.41;99725.41;5149722;27;20233;-68
2022/08/09 03:54:57;;;;;;;5.30;3.63;;;;;;;17.53;52.98;99732.22;5149667;27;20103;-68
2022/08/09 03:57:24;;;;;;;5.85;4.03;;;;;;;17.52;52.86;99735.88;5149819;27;20116;-68
2022/08/09 03:59:53;;;;;;;5.60;4.10;;;;;;;17.12;53.19;99672.94;5149631;27;20084;-68
2022/08/09 04:02:21;;;;;;;5.13;3.97;;;;;;;17.48;53.44;99730.88;5149622;27;20356;-68
2022/08/09 04:04:49;;;;;;;6.13;3.78;;;;;;;17.50;53.43;99723.56;5149089;27;20064;-68
2022/08/09 04:07:18;;;;;;;7.57;4.78;;;;;;;17.49;53.15;99721.88;5149435;27;20055;-68
2022/08/09 04:09:46;;;;;;;8.23;6.18;;;;;;;17.46;53.58;99722.09;5149231;27;20082;-68
2022/08/09 04:12:33;;;;;;;8.63;6.15;;;;;;;17.43;52.74;99723.19;5149506;27;20104;-68
2022/08/09 04:15:00;;;;;;;7.22;5.13;;;;;;;17.43;53.12;99720.50;5148603;27;20123;-68
2022/08/09 04:17:27;;;;;;;6.50;4.57;;;;;;;17.45;53.56;99725.75;5149268;27;20055;-68
2022/08/09 04:19:54;;;;;;;7.78;5.00;;;;;;;17.49;53.26;99729.91;5149477;27;20054;-68
2022/08/09 04:22:23;;;;;;;7.75;5.97;;;;;;;17.49;53.23;99730.75;5149225;27;20051;-68
2022/08/09 04:24:50;;;;;;;8.55;6.05;;;;;;;17.21;53.18;99696.38;5149271;27;20055;-68
2022/08/09 04:27:18;;;;;;;8.85;5.95;;;;;;;17.34;53.16;99712.34;5149103;27;20115;-68
2022/08/09 04:29:45;;;;;;;9.15;7.13;;;;;;;17.48;53.07;99738.91;5148586;27;20055;-68
2022/08/09 04:32:12;;;;;;;7.53;4.68;;;;;;;17.50;53.42;99732.47;5149199;27;20072;-68
2022/08/09 04:34:39;;;;;;;7.18;5.15;;;;;;;17.30;53.17;99698.34;5148628;27;20051;-68
2022/08/09 04:37:06;;;;;;;7.10;5.05;;;;;;;17.51;52.99;99736.00;5149010;27;20062;-68
2022/08/09 04:39:35;;;;;;;6.50;4.45;;;;;;;17.53;52.78;99745.63;5148747;27;20050;-68
2022/08/09 04:42:03;;;;;;;5.18;3.63;;;;;;;17.50;52.78;99743.19;5148515;27;20055;-68
2022/08/09 04:44:30;;;;;;;4.78;3.33;;;;;;;17.50;52.99;99745.88;5148125;27;20123;-67
2022/08/09 04:46:58;;;;;;;5.10;3.60;;;;;;;17.52;52.50;99746.59;5148611;27;20244;-68
2022/08/09 04:49:25;;;;;;;9.13;4.47;;;;;;;17.50;53.13;99735.16;5148711;27;20260;-68
2022/08/09 04:51:53;;;;;;;4.57;3.47;;;;;;;17.18;52.65;99699.25;5148047;27;20059;-68
2022/08/09 04:54:20;;;;;;;6.93;3.20;;;;;;;17.53;52.50;99745.63;5147931;27;20112;-67
2022/08/09 04:56:49;;;;;;;6.97;2.85;;;;;;;17.50;52.76;99743.19;5148527;27;20055;-68
2022/08/09 04:59:16;;;;;;;5.35;3.25;;;;;;;17.50;52.89;99745.88;5148305;27;20319;-68
2022/08/09 05:01:43;;;;;;;4.63;3.08;;;;;;;17.54;52.29;99743.78;5148472;27;20055;-68
2022/08/09 05:04:10;;;;;;;4.85;2.83;;;;;;;17.43;52.46;99728.56;5148277;27;20059;-68
2022/08/09 05:06:37;;;;;;;5.22;2.92;;;;;;;17.60;52.56;99751.34;5148504;27;20055;-68
2022/08/09 05:09:04;;;;;;;6.20;3.67;;;;;;;17.61;52.45;99753.94;5148195;27;20063;-68
2022/08/09 05:11:32;;;;;;;5.53;3.35;;;;;;;17.67;52.98;99754.44;5148233;27;20055;-68
2022/08/09 05:14:00;;;;;;;7.10;3.60;;;;;;;17.50;52.61;99735.16;5147871;27;20055;-68
2022/08/09 05:16:28;;;;;;;3.95;2.95;;;;;;;17.69;52.80;99758.72;5148551;27;20039;-68
2022/08/09 05:18:55;;;;;;;4.63;3.10;;;;;;;17.73;52.95;99756.66;5148214;27;20063;-68
2022/08/09 05:21:22;;;;;;;4.53;3.05;;;;;;;17.74;52.87;99750.31;5147833;27;20307;-68
2022/08/09 05:23:49;;;;;;;4.32;2.78;;;;;;;17.74;52.77;99755.69;5147776;27;20055;-68
2022/08/09 05:26:17;;;;;;;4.78;3.42;;;;;;;17.77;52.77;99758.13;5147640;27;20051;-68
2022/08/09 05:28:44;;;;;;;4.07;3.30;;;;;;;17.43;52.89;99698.22;5147743;27;20100;-68
2022/08/09 05:31:13;;;;;;;5.13;3.63;;;;;;;17.86;52.44;99760.94;5147693;27;20055;-67
2022/08/09 05:33:40;;;;;;;6.18;3.38;;;;;;;17.87;52.83;99762.63;5148071;27;20042;-68
2022/08/09 05:36:07;;;;;;;5.53;2.80;;;;;;;17.76;52.59;99743.84;5147596;27;20055;-67
2022/08/09 05:38:34;;;;;;;4.97;2.95;;;;;;;17.88;52.67;99764.34;5147538;27;20115;-67
2022/08/09 05:41:02;;;;;;;4.18;2.70;;;;;;;17.92;52.60;99767.63;5147725;27;20058;-68
2022/08/09 05:43:29;;;;;;;7.53;2.80;;;;;;;17.93;52.53;99754.09;5147453;27;20051;-68
2022/08/09 05:45:56;;;;;;;3.72;2.72;;;;;;;17.96;52.98;99769.09;5147208;27;20178;-68
2022/08/09 05:48:25;;;;;;;5.20;3.17;;;;;;;18.02;52.41;99768.63;5147687;27;20058;-68
2022/08/09 05:50:52;;;;;;;6.25;2.60;;;;;;;18.01;52.29;99777.63;5147925;27;20055;-68
2022/08/09 05:53:19;;;;;;;5.18;2.50;;;;;;;17.90;52.45;99749.00;5147264;27;20237;-68
2022/08/09 05:55:46;;;;;;;3.75;2.80;;;;;;;17.94;52.21;99746.91;5147217;27;20131;-68
2022/08/09 05:58:14;;;;;;;3.33;2.40;;;;;;;18.04;52.44;99765.81;5147172;27;20315;-68
2022/08/09 06:00:41;;;;;;;7.43;3.00;;;;;;;18.12;52.56;99782.13;5147185;27;20056;-68
2022/08/09 06:03:08;;;;;;;5.03;3.10;;;;;;;18.13;52.52;99776.66;5146726;27;20109;-68
2022/08/09 06:05:36;;;;;;;5.80;2.88;;;;;;;18.18;52.51;99782.50;5146112;27;20055;-68
2022/08/09 06:08:04;;;;;;;4.35;2.83;;;;;;;18.20;52.10;99788.59;5147226;27;20059;-68
2022/08/09 06:10:37;;;;;;;5.13;3.08;;;;;;;18.24;52.11;99784.69;5146546;27;20107;-68
2022/08/09 06:13:05;;;;;;;3.47;2.75;;;;;;;18.24;52.29;99779.34;5146557;27;20047;-67
2022/08/09 06:15:33;;;;;;;6.28;3.22;;;;;;;18.28;51.73;99791.53;5146716;27;20054;-68
2022/08/09 06:18:00;;;;;;;4.05;3.17;;;;;;;18.33;51.97;99787.63;5128826;27;20103;-68
2022/08/09 06:20:28;;;;;;;5.10;3.13;;;;;;;18.37;52.51;99781.03;5146706;27;20202;-68
2022/08/09 06:22:56;;;;;;;4.13;2.85;;;;;;;18.40;51.79;99778.09;5146041;27;20104;-68
2022/08/09 06:25:24;;;;;;;6.65;3.47;;;;;;;18.46;51.67;99789.19;5146834;27;20265;-68
2022/08/09 06:27:51;;;;;;;6.60;2.80;;;;;;;18.51;51.92;99781.63;5146422;27;20080;-68
2022/08/09 06:30:19;;;;;;;4.93;2.47;;;;;;;18.56;51.36;99776.75;5146564;27;20055;-68
2022/08/09 06:32:46;;;;;;;3.53;2.38;;;;;;;18.52;51.19;99758.34;5146401;27;20046;-68
2022/08/09 06:35:13;;;;;;;4.47;2.50;;;;;;;18.71;50.98;99779.16;5146830;27;20051;-68
2022/08/09 06:37:41;;;;;;;4.85;2.42;;;;;;;18.78;51.48;99780.38;5146458;27;20310;-69
2022/08/09 06:40:11;;;;;;;4.63;2.92;;;;;;;18.92;50.87;99780.94;5146506;27;20351;-68
2022/08/09 06:42:38;;;;;;;4.95;3.30;;;;;;;19.03;50.72;99776.50;5146408;27;20116;-69
2022/08/09 06:45:06;;;;;;;6.13;2.85;;;;;;;19.18;50.61;99788.66;5146502;27;20063;-68
2022/08/09 06:47:33;;;;;;;3.83;2.55;;;;;;;19.33;50.31;99787.38;5146329;27;20371;-68
2022/08/09 06:50:00;;;;;;;4.07;2.38;;;;;;;19.48;50.12;99771.81;5146272;27;20323;-69
2022/08/09 06:52:27;;;;;;;5.97;2.80;;;;;;;19.66;49.99;99774.75;5146430;27;20107;-68
2022/08/09 06:54:55;;;;;;;3.38;2.42;;;;;;;19.85;49.60;99773.06;5146160;27;20099;-68
2022/08/09 06:57:23;;;;;;;4.60;2.55;;;;;;;20.05;48.83;99768.63;5146066;27;20112;-68
2022/08/09 06:59:51;;;;;;;4.15;2.45;;;;;;;20.16;48.44;99765.84;5146539;28;20119;-69
2022/08/09 07:02:18;;;;;;;6.50;2.50;;;;;;;20.38;48.30;99770.19;5145616;28;20055;-69
2022/08/09 07:04:45;;;;;;;5.38;2.67;;;;;;;20.05;48.12;99687.91;5146014;28;20104;-69
2022/08/09 07:07:14;;;;;;;5.03;3.00;;;;;;;20.72;47.41;99767.16;5146073;28;20238;-69
2022/08/09 07:09:41;;;;;;;4.45;2.95;;;;;;;20.90;47.06;99767.31;5146008;28;20167;-69
2022/08/09 07:12:08;;;;;;;4.88;3.17;;;;;;;21.06;46.84;99771.19;5146058;28;20102;-69
2022/08/09 07:14:37;;;;;;;3.95;2.63;;;;;;;20.96;46.46;99737.13;5146170;28;20051;-68
2022/08/09 07:17:05;;;;;;;4.30;2.58;;;;;;;21.34;46.13;99774.88;5147841;27;20092;-68
2022/08/09 07:19:32;;;;;;;5.10;2.88;;;;;;;21.53;46.02;99779.41;5150577;27;20055;-69
2022/08/09 07:21:59;;;;;;;5.50;2.80;;;;;;;21.69;45.95;99776.94;5132321;27;20093;-69
2022/08/09 07:24:29;;;;;;;5.03;2.88;;;;;;;21.82;45.69;99773.97;5149999;27;20344;-70
2022/08/09 07:26:56;;;;;;;5.93;3.03;;;;;;;21.89;45.05;99782.34;5149893;27;20265;-69
2022/08/09 07:29:24;;;;;;;5.35;2.88;;;;;;;22.07;45.14;99769.78;5150237;27;20039;-70
2022/08/09 07:31:52;;;;;;;6.90;3.35;;;;;;;22.21;44.87;99773.84;5149569;27;20119;-70
2022/08/09 07:34:20;;;;;;;8.30;2.80;;;;;;;22.18;44.73;99769.59;5150042;27;20319;-70
2022/08/09 07:36:48;;;;;;;5.72;2.83;;;;;;;22.42;44.71;99777.19;5131825;27;20043;-71
2022/08/09 07:39:15;;;;;;;4.40;3.03;;;;;;;22.53;44.12;99771.56;5150087;27;20096;-71
2022/08/09 07:41:43;;;;;;;5.47;3.45;;;;;;;22.64;43.98;99784.06;5149818;27;20100;-71
2022/08/09 07:44:10;;;;;;;4.95;2.92;;;;;;;22.83;43.83;99785.78;5149408;27;20071;-72
2022/08/09 07:46:38;;;;;;;5.63;2.90;;;;;;;22.91;43.82;99794.81;5149796;27;20059;-71
2022/08/09 07:49:06;;;;;;;4.32;3.15;;;;;;;23.07;43.44;99782.47;5149369;27;20051;-72
2022/08/09 07:51:34;;;;;;;4.78;3.58;;;;;;;23.13;43.58;99771.06;5149763;27;20055;-71
2022/08/09 07:54:01;;;;;;;3.83;2.83;;;;;;;23.21;43.17;99785.50;5149500;27;20084;-71
2022/08/09 07:56:28;;;;;;;4.53;2.88;;;;;;;23.39;43.53;99781.97;5149851;27;20054;-71
2022/08/09 07:58:56;;;;;;;5.32;2.88;;;;;;;23.41;43.00;99780.81;5149939;27;20063;-71
2022/08/09 08:01:23;;;;;;;5.45;3.00;;;;;;;23.39;42.53;99758.47;5149238;27;20054;-71
2022/08/09 08:03:50;;;;;;;5.32;3.03;;;;;;;23.62;42.58;99773.19;5149304;27;20051;-72
2022/08/09 08:06:18;;;;;;;4.75;2.72;;;;;;;23.71;42.06;99775.94;5131354;27;20051;-72
2022/08/09 08:08:46;;;;;;;3.58;2.40;;;;;;;23.83;42.78;99771.97;5149156;27;20059;-71
2022/08/09 08:11:13;;;;;;;4.53;2.85;;;;;;;23.85;42.17;99757.28;5148772;27;20062;-72
2022/08/09 08:13:40;;;;;;;4.97;3.47;;;;;;;24.06;42.32;99764.19;5149467;27;20104;-72
2022/08/09 08:16:08;;;;;;;5.30;3.00;;;;;;;24.12;41.57;99767.09;5148929;27;20055;-72
2022/08/09 08:18:36;;;;;;;3.42;2.50;;;;;;;24.22;41.93;99766.97;5149362;27;20039;-72
2022/08/09 08:21:03;;;;;;;5.00;2.38;;;;;;;24.15;41.42;99737.00;5149251;27;20088;-72
2022/08/09 08:23:32;;;;;;;6.70;2.25;;;;;;;24.37;41.55;99759.94;5148782;27;20055;-72
2022/08/09 08:25:59;;;;;;;6.20;2.35;;;;;;;24.45;41.47;99768.09;5148559;27;20111;-72
2022/08/09 08:28:27;;;;;;;4.55;2.53;;;;;;;24.57;41.26;99758.66;5147615;27;20104;-72
2022/08/09 08:30:54;;;;;;;4.93;2.88;;;;;;;24.64;41.25;99764.28;5148475;27;20062;-72
2022/08/09 08:33:22;;;;;;;8.35;3.28;;;;;;;24.73;41.16;99752.47;5148527;27;20236;-73
2022/08/09 08:35:49;;;;;;;4.47;2.67;;;;;;;24.83;41.20;99758.59;5148884;27;20059;-73
2022/08/09 08:38:16;;;;;;;4.43;2.70;;;;;;;24.93;41.23;99744.88;5148717;27;20348;-72
2022/08/09 08:40:44;;;;;;;6.03;2.60;;;;;;;24.98;40.89;99745.22;5148604;27;20303;-72
2022/08/09 08:43:12;;;;;;;5.35;2.58;;;;;;;25.04;40.51;99746.47;5147980;27;20108;-73
2022/08/09 08:45:44;;;;;;;3.50;2.20;;;;;;;25.10;40.12;99743.06;5148255;27;20059;-72
2022/08/09 08:48:11;;;;;;;5.95;2.88;;;;;;;25.18;39.89;99738.50;5148446;27;20055;-73
2022/08/09 08:50:39;;;;;;;5.40;2.90;;;;;;;25.14;40.15;99731.72;5148443;27;20063;-73
2022/08/09 08:53:07;;;;;;;5.18;2.35;;;;;;;25.30;40.31;99749.00;5148672;27;20047;-73
2022/08/09 08:55:35;;;;;;;6.07;3.50;;;;;;;25.43;40.36;99749.38;5148350;27;20055;-73
2022/08/09 08:58:05;;;;;;;4.28;2.80;;;;;;;25.51;40.37;99746.66;5148465;27;20051;-73
2022/08/09 09:00:33;;;;;;;6.03;2.45;;;;;;;25.52;39.93;99751.91;5148125;27;20055;-72
2022/08/09 09:03:01;;;;;;;4.75;2.70;;;;;;;25.63;39.74;99750.72;5148272;27;20055;-73
2022/08/09 09:05:30;;;;;;;4.03;2.30;;;;;;;25.71;39.47;99756.13;5148098;27;20054;-72
2022/08/09 09:07:59;;;;;;;4.75;2.58;;;;;;;25.65;39.65;99726.13;5148681;27;20100;-73
2022/08/09 09:10:29;;;;;;;4.90;2.88;;;;;;;25.82;39.07;99755.78;5148085;27;20237;-73
2022/08/09 09:12:57;;;;;;;6.90;2.83;;;;;;;25.83;39.61;99743.06;5147781;27;20055;-73
2022/08/09 09:15:26;;;;;;;3.40;2.50;;;;;;;25.89;38.42;99748.63;5147816;27;20265;-73
2022/08/09 09:17:53;;;;;;;4.75;2.63;;;;;;;25.91;38.82;99735.72;5147995;27;20081;-72
2022/08/09 09:20:21;;;;;;;4.90;2.63;;;;;;;26.05;39.37;99744.22;5148155;27;20058;-73
2022/08/09 09:22:58;;;;;;;5.43;3.10;;;;;;;26.16;37.88;99746.56;5148329;27;20043;-73
2022/08/09 09:25:33;;;;;;;4.15;2.58;;;;;;;26.22;38.01;99740.41;5147641;27;20100;-73
2022/08/09 09:28:00;;;;;;;5.82;2.40;;;;;;;26.28;38.79;99734.28;5147817;27;20059;-73
2022/08/09 09:30:29;;;;;;;3.55;2.33;;;;;;;26.37;38.56;99737.81;5147964;27;20055;-72
2022/08/09 09:33:05;;;;;;;5.45;2.83;;;;;;;26.45;37.47;99744.06;5147630;27;20100;-73
2022/08/09 09:35:33;;;;;;;4.55;2.80;;;;;;;26.49;38.85;99739.97;5147947;27;20055;-73
2022/08/09 09:38:00;;;;;;;5.35;3.20;;;;;;;26.54;38.81;99743.00;5147599;27;20080;-72
2022/08/09 09:40:41;;;;;;;4.68;2.75;;;;;;;26.59;41.95;99734.31;5147694;27;20218;-72
2022/08/09 09:43:08;;;;;;;6.80;3.60;;;;;;;26.57;40.95;99730.06;5147022;27;20055;-73
2022/08/09 09:45:48;;;;;;;6.50;3.00;;;;;;;26.53;40.60;99735.84;5147430;27;20063;-73
2022/08/09 09:48:16;;;;;;;4.00;2.45;;;;;;;26.45;40.27;99732.34;5147669;27;20237;-73
2022/08/09 09:50:45;;;;;;;5.40;2.88;;;;;;;26.44;40.11;99717.06;5146931;27;20062;-72
2022/08/09 09:53:16;;;;;;;3.60;2.60;;;;;;;26.62;39.50;99736.69;5147563;27;20076;-73
2022/08/09 09:55:52;;;;;;;4.68;2.50;;;;;;;26.71;38.87;99737.50;5147025;27;20084;-73
2022/08/09 09:58:20;;;;;;;5.00;2.65;;;;;;;26.74;39.63;99734.41;5147032;27;20344;-73
2022/08/09 10:00:51;;;;;;;3.90;2.58;;;;;;;26.80;39.07;99733.69;5147020;27;20118;-72
2022/08/09 10:03:36;;;;;;;7.95;2.92;;;;;;;26.75;38.86;99736.09;5146655;27;20199;-71
2022/08/09 10:06:03;;;;;;;6.05;3.63;;;;;;;26.71;38.94;99734.78;5146840;27;20107;-71
2022/08/09 10:08:31;;;;;;;4.10;2.72;;;;;;;26.80;38.72;99729.09;5147303;27;20104;-72
2022/08/09 10:10:58;;;;;;;6.20;2.60;;;;;;;26.86;38.67;99736.53;5146903;27;20084;-72
2022/08/09 10:13:37;;;;;;;5.50;3.33;;;;;;;26.89;37.28;99729.91;5146644;27;20185;-69
2022/08/09 10:16:07;;;;;;;4.15;2.50;;;;;;;26.96;37.91;99728.16;5146962;27;20055;-69
2022/08/09 10:18:35;;;;;;;6.40;2.83;;;;;;;26.76;38.43;99680.72;5146349;27;20051;-70
2022/08/09 10:21:07;;;;;;;7.53;4.18;;;;;;;26.95;37.02;99714.72;5146819;27;20063;-71
2022/08/09 10:23:34;;;;;;;5.45;4.20;;;;;;;27.05;37.09;99716.19;5146613;27;20379;-71
2022/08/09 10:26:02;;;;;;;9.38;5.60;;;;;;;27.04;37.39;99729.97;5128802;27;20045;-71
2022/08/09 10:28:30;;;;;;;4.30;3.40;;;;;;;27.11;37.57;99709.16;5146248;27;20051;-70
2022/08/09 10:30:58;;;;;;;8.32;3.53;;;;;;;27.18;37.78;99710.97;5146686;27;20055;-71
2022/08/09 10:33:27;;;;;;;9.20;3.13;;;;;;;27.17;37.15;99716.59;5146452;27;20049;-71
2022/08/09 10:35:56;;;;;;;8.75;3.28;;;;;;;26.90;37.07;99639.13;5146266;27;20244;-71
2022/08/09 10:38:24;;;;;;;6.50;4.05;;;;;;;27.37;36.80;99701.50;5146488;27;20055;-71
2022/08/09 10:40:51;;;;;;;6.57;3.40;;;;;;;26.91;36.45;99654.41;5146385;27;20307;-71
2022/08/09 10:43:19;;;;;;;5.10;2.85;;;;;;;27.26;37.25;99709.25;5145931;27;20047;-71
2022/08/09 10:45:47;;;;;;;4.80;2.83;;;;;;;27.25;37.22;99707.56;5146420;27;20077;-70
2022/08/09 10:48:22;;;;;;;5.15;3.05;;;;;;;27.35;36.42;99699.97;5146438;27;20111;-70
2022/08/09 10:51:10;;;;;;;4.38;3.38;;;;;;;27.26;35.29;99680.16;5146239;27;20047;-70
2022/08/09 10:53:50;;;;;;;5.30;3.28;;;;;;;27.40;34.71;99700.28;5146320;27;20058;-70
2022/08/09 10:56:22;;;;;;;5.00;3.30;;;;;;;27.41;34.94;99680.19;5146301;27;20051;-71
2022/08/09 10:58:50;;;;;;;5.75;3.63;;;;;;;27.43;35.97;99667.25;5145943;28;20050;-71
2022/08/09 11:01:41;;;;;;;5.53;3.10;;;;;;;27.59;34.08;99685.28;5146346;28;20076;-70
2022/08/09 11:04:19;;;;;;;5.47;3.63;;;;;;;27.47;35.26;99688.47;5146209;28;20070;-71
2022/08/09 11:06:50;;;;;;;3.65;2.80;;;;;;;27.48;35.38;99689.31;5146234;28;20055;-71
2022/08/09 11:09:19;;;;;;;4.15;2.65;;;;;;;27.51;35.31;99688.94;5145974;28;20380;-71
2022/08/09 11:12:09;;;;;;;5.63;3.03;;;;;;;27.49;33.15;99682.84;5145996;28;20062;-71
2022/08/09 11:14:40;;;;;;;3.50;2.45;;;;;;;27.55;34.48;99690.25;5145878;28;20108;-71
2022/08/09 11:17:50;;;;;;;3.88;2.75;;;;;;;27.57;32.59;99688.19;5146091;28;20051;-71
2022/08/09 11:20:18;;;;;;;5.40;2.53;;;;;;;27.57;34.95;99680.03;5145771;28;20168;-72
2022/08/09 11:23:01;;;;;;;6.05;3.00;;;;;;;27.63;33.74;99681.19;5145919;28;20257;-71
2022/08/09 11:25:43;;;;;;;3.72;2.80;;;;;;;27.75;33.05;99669.66;5146079;28;20047;-71
2022/08/09 11:28:32;;;;;;;3.60;2.55;;;;;;;27.80;32.59;99667.22;5145781;28;20055;-71
2022/08/09 11:30:59;;;;;;;3.78;1.98;;;;;;;27.76;34.03;99668.63;5145856;28;20055;-72
2022/08/09 11:33:38;;;;;;;5.00;2.60;;;;;;;27.70;32.61;99682.13;5145586;28;20104;-71
2022/08/09 11:36:07;;;;;;;3.55;2.28;;;;;;;27.62;34.12;99682.22;5145339;28;20063;-69
2022/08/09 11:38:36;;;;;;;4.50;2.60;;;;;;;27.60;33.50;99690.53;5146141;28;20348;-70
2022/08/09 11:41:27;;;;;;;4.43;2.40;;;;;;;27.57;32.36;99679.19;5145557;28;20107;-70
2022/08/09 11:43:55;;;;;;;3.63;2.58;;;;;;;27.54;32.60;99669.50;5145388;28;20104;-70
2022/08/09 11:46:22;;;;;;;4.30;2.40;;;;;;;27.65;33.25;99663.63;5145913;28;20111;-70